createdAt,value
2019-02-08T00:00:10.799Z,6.17
2019-02-08T00:06:22.492Z,6.52
2019-02-08T00:09:28.299Z,6.31
2019-02-08T00:12:34.300Z,6.32
2019-02-08T00:15:40.167Z,6.47
2019-02-08T00:18:46.061Z,6.34
2019-02-08T00:21:51.817Z,6.35
2019-02-08T00:24:57.568Z,6.60
2019-02-08T00:28:03.747Z,6.79
2019-02-08T00:31:09.623Z,6.71
2019-02-08T00:34:15.379Z,6.51
2019-02-08T00:37:21.172Z,6.77
2019-02-08T00:40:27.411Z,6.52
2019-02-08T00:43:35.050Z,6.26
2019-02-08T00:46:40.946Z,6.41
2019-02-08T00:49:46.715Z,6.42
2019-02-08T00:52:53.272Z,6.51
2019-02-08T00:55:59.244Z,6.33
2019-02-08T00:59:05.512Z,6.67
2019-02-08T01:02:11.362Z,6.76
2019-02-08T01:05:18.186Z,6.48
2019-02-08T01:08:24.518Z,6.58
2019-02-08T01:11:30.436Z,6.80
2019-02-08T01:14:36.315Z,6.52
2019-02-08T01:17:42.187Z,6.35
2019-02-08T01:20:47.968Z,6.74
2019-02-08T01:23:53.733Z,6.85
2019-02-08T01:26:59.612Z,6.61
2019-02-08T01:30:08.106Z,6.98
2019-02-08T01:33:14.058Z,7.07
2019-02-08T01:36:19.915Z,6.71
2019-02-08T01:39:25.681Z,7.03
2019-02-08T01:42:31.480Z,6.92
2019-02-08T01:45:37.570Z,6.70
2019-02-08T01:48:43.466Z,6.59
2019-02-08T01:51:49.227Z,6.79
2019-02-08T01:54:54.992Z,6.84
2019-02-08T01:58:00.882Z,6.57
2019-02-08T02:01:08.424Z,6.60
2019-02-08T02:04:14.413Z,6.84
2019-02-08T02:07:20.375Z,6.95
2019-02-08T02:10:34.539Z,6.52
2019-02-08T02:13:40.345Z,6.65
2019-02-08T02:16:46.098Z,6.76
2019-02-08T02:19:51.927Z,6.51
2019-02-08T02:22:57.917Z,6.56
2019-02-08T02:26:03.693Z,6.74
2019-02-08T02:29:09.461Z,6.48
2019-02-08T02:32:15.209Z,6.58
2019-02-08T02:35:21.181Z,6.70
2019-02-08T02:38:26.925Z,6.74
2019-02-08T02:41:32.770Z,6.52
2019-02-08T02:44:38.559Z,6.69
2019-02-08T02:47:44.416Z,6.69
2019-02-08T02:50:50.270Z,6.30
2019-02-08T02:54:04.468Z,6.51
2019-02-08T02:57:04.593Z,6.69
2019-02-08T03:00:14.619Z,6.10
2019-02-08T03:03:20.498Z,6.75
2019-02-08T03:06:26.354Z,6.89
2019-02-08T03:09:32.113Z,6.78
2019-02-08T03:12:37.898Z,6.69
2019-02-08T03:15:43.901Z,6.99
2019-02-08T03:18:49.662Z,6.88
2019-02-08T03:21:55.419Z,6.37
2019-02-08T03:25:01.185Z,6.66
2019-02-08T03:28:07.132Z,6.68
2019-02-08T03:31:12.921Z,6.71
2019-02-08T03:34:18.762Z,6.55
2019-02-08T03:37:24.518Z,6.91
2019-02-08T03:40:30.492Z,7.01
2019-02-08T03:43:36.235Z,6.89
2019-02-08T03:46:42.195Z,6.80
2019-02-08T03:49:48.046Z,6.97
2019-02-08T03:52:54.020Z,7.01
2019-02-08T03:55:59.854Z,6.40
2019-02-08T03:59:06.213Z,6.79
2019-02-08T04:02:11.979Z,6.33
2019-02-08T04:05:17.925Z,6.70
2019-02-08T04:08:23.683Z,6.87
2019-02-08T04:11:29.611Z,6.73
2019-02-08T04:14:35.589Z,6.65
2019-02-08T04:17:41.606Z,6.85
2019-02-08T04:20:47.384Z,6.59
2019-02-08T04:23:53.246Z,6.42
2019-02-08T04:26:59.022Z,6.59
2019-02-08T04:30:06.687Z,6.64
2019-02-08T04:33:12.631Z,6.70
2019-02-08T04:36:18.374Z,6.81
2019-02-08T04:39:24.151Z,7.01
2019-02-08T04:42:29.888Z,6.88
2019-02-08T04:45:35.847Z,6.70
2019-02-08T04:48:41.664Z,6.77
2019-02-08T04:51:47.492Z,6.87
2019-02-08T04:54:53.249Z,6.70
2019-02-08T04:57:59.014Z,6.76
2019-02-08T05:01:05.007Z,6.80
2019-02-08T05:04:10.865Z,7.03
2019-02-08T05:07:16.624Z,6.91
2019-02-08T05:10:25.294Z,6.94
2019-02-08T05:13:31.046Z,7.16
2019-02-08T05:16:36.792Z,7.06
2019-02-08T05:19:42.592Z,6.52
2019-02-08T05:22:48.578Z,6.90
2019-02-08T05:25:54.350Z,7.01
2019-02-08T05:29:00.124Z,6.69
2019-02-08T05:32:06.533Z,6.75
2019-02-08T05:35:12.708Z,6.95
2019-02-08T05:38:18.565Z,7.04
2019-02-08T05:41:24.467Z,6.54
2019-02-08T05:44:30.352Z,6.77
2019-02-08T05:47:36.244Z,6.84
2019-02-08T05:50:42.253Z,6.72
2019-02-08T05:53:48.009Z,6.63
2019-02-08T05:56:53.824Z,7.01
2019-02-08T05:59:59.581Z,7.23
2019-02-08T06:03:06.394Z,6.55
2019-02-08T06:06:12.359Z,6.94
2019-02-08T06:09:18.335Z,6.97
2019-02-08T06:12:24.098Z,6.59
2019-02-08T06:15:30.079Z,6.81
2019-02-08T06:18:35.851Z,6.72
2019-02-08T06:21:41.598Z,7.08
2019-02-08T06:24:47.364Z,6.37
2019-02-08T06:27:53.362Z,6.75
2019-02-08T06:30:59.162Z,6.45
2019-02-08T06:34:05.092Z,6.35
2019-02-08T06:37:10.891Z,6.36
2019-02-08T06:40:19.179Z,6.52
2019-02-08T06:43:24.934Z,6.58
2019-02-08T06:46:30.714Z,6.69
2019-02-08T06:49:36.475Z,6.83
2019-02-08T06:52:42.487Z,6.73
2019-02-08T06:55:48.268Z,7.10
2019-02-08T06:59:02.281Z,6.71
2019-02-08T07:02:22.812Z,7.08
2019-02-08T07:06:00.656Z,6.95
2019-02-08T07:09:29.238Z,6.58
2019-02-08T07:12:56.866Z,6.89
2019-02-08T07:16:24.714Z,6.62
2019-02-08T07:19:48.355Z,7.05
2019-02-08T07:23:12.807Z,6.90
2019-02-08T07:26:42.833Z,7.01
2019-02-08T07:30:16.643Z,7.44
2019-02-08T07:33:44.020Z,7.61
2019-02-08T07:37:09.338Z,7.49
2019-02-08T07:40:50.474Z,7.14
2019-02-08T07:44:14.095Z,7.20
2019-02-08T07:47:28.863Z,7.15
2019-02-08T07:50:39.627Z,7.37
2019-02-08T07:53:58.703Z,7.28
2019-02-08T07:57:22.549Z,7.31
2019-02-08T08:00:51.609Z,7.88
2019-02-08T08:04:02.605Z,7.80
2019-02-08T08:07:26.215Z,7.99
2019-02-08T08:10:44.992Z,7.94
2019-02-08T08:14:08.739Z,8.15
2019-02-08T08:17:32.379Z,8.15
2019-02-08T08:20:56.087Z,8.00
2019-02-08T08:24:16.181Z,8.07
2019-02-08T08:27:34.266Z,7.53
2019-02-08T08:31:05.522Z,7.92
2019-02-08T08:34:18.607Z,7.96
2019-02-08T08:37:58.016Z,8.29
2019-02-08T08:41:44.249Z,8.33
2019-02-08T08:45:27.842Z,7.99
2019-02-08T08:49:20.341Z,8.18
2019-02-08T08:53:19.107Z,8.54
2019-02-08T08:56:43.430Z,8.55
2019-02-08T09:00:44.278Z,8.57
2019-02-08T09:04:24.833Z,8.33
2019-02-08T09:08:06.887Z,8.50
2019-02-08T09:12:12.767Z,8.88
2019-02-08T09:16:04.460Z,8.57
2019-02-08T09:20:00.202Z,8.93
2019-02-08T09:23:46.700Z,9.37
2019-02-08T09:27:35.092Z,9.39
2019-02-08T09:31:20.857Z,9.55
2019-02-08T09:35:06.184Z,9.67
2019-02-08T09:38:50.771Z,9.63
2019-02-08T09:42:40.175Z,9.86
2019-02-08T09:46:38.471Z,10.02
2019-02-08T09:50:20.925Z,10.09
2019-02-08T09:54:08.654Z,10.19
2019-02-08T09:57:51.190Z,10.20
2019-02-08T10:01:32.536Z,10.20
2019-02-08T10:05:16.150Z,10.55
2019-02-08T10:09:20.888Z,10.41
2019-02-08T10:13:13.449Z,9.62
2019-02-08T10:17:00.273Z,9.40
2019-02-08T10:20:55.095Z,9.51
2019-02-08T10:24:36.429Z,9.36
2019-02-08T10:28:17.790Z,9.54
2019-02-08T10:32:17.522Z,9.52
2019-02-08T10:36:28.825Z,9.46
2019-02-08T10:40:17.915Z,8.99
2019-02-08T10:44:22.690Z,9.34
2019-02-08T10:48:15.168Z,9.33
2019-02-08T10:52:04.289Z,9.28
2019-02-08T10:55:48.928Z,9.05
2019-02-08T10:59:34.685Z,9.06
2019-02-08T11:03:41.482Z,9.01
2019-02-08T11:07:27.673Z,9.05
2019-02-08T11:11:11.586Z,9.13
2019-02-08T11:14:55.354Z,9.61
2019-02-08T11:18:38.338Z,10.30
2019-02-08T11:21:44.273Z,10.12
2019-02-08T11:24:50.237Z,10.37
2019-02-08T11:27:56.261Z,10.25
2019-02-08T11:31:02.086Z,10.24
2019-02-08T11:34:08.323Z,10.05
2019-02-08T11:37:14.545Z,10.62
2019-02-08T11:40:25.332Z,10.47
2019-02-08T11:43:31.537Z,10.53
2019-02-08T11:46:37.652Z,10.76
2019-02-08T11:49:43.533Z,10.85
2019-02-08T11:52:49.350Z,10.93
2019-02-08T11:55:55.217Z,10.81
2019-02-08T11:59:00.999Z,11.06
2019-02-08T12:02:07.169Z,11.18
2019-02-08T12:05:13.784Z,10.69
2019-02-08T12:08:19.675Z,10.94
2019-02-08T12:11:25.449Z,11.21
2019-02-08T12:14:31.450Z,11.13
2019-02-08T12:17:37.236Z,10.84
2019-02-08T12:20:43.127Z,10.75
2019-02-08T12:23:49.008Z,11.11
2019-02-08T12:26:54.778Z,10.55
2019-02-08T12:30:00.555Z,10.07
2019-02-08T12:33:06.911Z,10.49
2019-02-08T12:36:12.875Z,10.57
2019-02-08T12:39:18.761Z,10.72
2019-02-08T12:42:24.542Z,10.27
2019-02-08T12:45:31.620Z,10.47
2019-02-08T12:48:37.396Z,10.30
2019-02-08T12:51:43.250Z,10.50
2019-02-08T12:54:49.024Z,10.70
2019-02-08T12:57:54.781Z,10.13
2019-02-08T13:01:00.759Z,10.12
2019-02-08T13:04:07.950Z,10.29
2019-02-08T13:07:13.825Z,10.65
2019-02-08T13:10:22.012Z,10.40
2019-02-08T13:13:27.846Z,10.54
2019-02-08T13:16:33.607Z,10.53
2019-02-08T13:19:39.405Z,10.61
2019-02-08T13:22:45.328Z,10.55
2019-02-08T13:25:51.243Z,10.50
2019-02-08T13:28:57.026Z,10.54
2019-02-08T13:32:02.917Z,10.60
2019-02-08T13:35:09.030Z,10.65
2019-02-08T13:38:14.854Z,10.80
2019-02-08T13:41:20.635Z,10.76
2019-02-08T13:44:26.632Z,10.69
2019-02-08T13:47:32.531Z,10.44
2019-02-08T13:50:38.429Z,10.61
2019-02-08T13:53:44.231Z,10.55
2019-02-08T13:56:50.014Z,10.50
2019-02-08T13:59:55.817Z,10.52
2019-02-08T14:03:01.864Z,10.42
2019-02-08T14:06:08.187Z,10.29
2019-02-08T14:09:14.193Z,10.36
2019-02-08T14:12:19.968Z,10.05
2019-02-08T14:15:26.459Z,9.92
2019-02-08T14:18:32.244Z,10.03
2019-02-08T14:21:38.023Z,10.10
2019-02-08T14:24:44.155Z,9.75
2019-02-08T14:27:50.613Z,9.98
2019-02-08T14:30:56.480Z,10.14
2019-02-08T14:34:02.253Z,9.85
2019-02-08T14:37:08.307Z,10.07
2019-02-08T14:40:17.297Z,10.09
2019-02-08T14:43:23.089Z,9.94
2019-02-08T14:46:28.836Z,10.00
2019-02-08T14:49:34.721Z,9.88
2019-02-08T14:52:40.592Z,9.47
2019-02-08T14:55:46.455Z,9.48
2019-02-08T14:58:52.304Z,9.54
2019-02-08T15:01:58.156Z,9.61
2019-02-08T15:05:04.918Z,9.63
2019-02-08T15:08:10.715Z,9.64
2019-02-08T15:11:16.530Z,9.59
2019-02-08T15:14:22.303Z,9.62
2019-02-08T15:17:28.123Z,9.48
2019-02-08T15:20:34.126Z,9.35
2019-02-08T15:23:40.008Z,9.18
2019-02-08T15:26:45.741Z,8.99
2019-02-08T15:29:51.530Z,9.07
2019-02-08T15:32:57.308Z,9.03
2019-02-08T15:36:03.191Z,9.20
2019-02-08T15:39:12.140Z,9.11
2019-02-08T15:42:18.024Z,9.10
2019-02-08T15:45:23.957Z,9.10
2019-02-08T15:48:29.823Z,9.24
2019-02-08T15:51:35.841Z,8.85
2019-02-08T15:54:42.609Z,8.48
2019-02-08T15:57:48.447Z,8.82
2019-02-08T16:00:54.427Z,8.88
2019-02-08T16:04:00.210Z,8.92
2019-02-08T16:07:06.224Z,8.67
2019-02-08T16:10:12.412Z,8.99
2019-02-08T16:13:18.266Z,8.96
2019-02-08T16:16:25.549Z,9.11
2019-02-08T16:19:31.656Z,8.35
2019-02-08T16:22:37.680Z,8.52
2019-02-08T16:25:43.550Z,8.66
2019-02-08T16:28:49.362Z,8.84
2019-02-08T16:31:55.139Z,8.83
2019-02-08T16:35:01.044Z,8.96
2019-02-08T16:38:07.475Z,8.84
2019-02-08T16:41:13.421Z,9.08
2019-02-08T16:44:19.390Z,8.76
2019-02-08T16:47:25.177Z,8.42
2019-02-08T16:50:31.972Z,8.89
2019-02-08T16:53:37.793Z,8.78
2019-02-08T16:56:43.556Z,9.03
2019-02-08T16:59:49.333Z,9.03
2019-02-08T17:02:55.981Z,9.01
2019-02-08T17:06:01.810Z,8.75
2019-02-08T17:09:12.678Z,8.96
2019-02-08T17:12:18.559Z,9.14
2019-02-08T17:15:25.691Z,9.19
2019-02-08T17:18:31.445Z,8.60
2019-02-08T17:21:37.241Z,9.08
2019-02-08T17:24:43.096Z,9.19
2019-02-08T17:27:55.160Z,9.00
2019-02-08T17:30:56.784Z,9.10
2019-02-08T17:34:02.573Z,9.06
2019-02-08T17:37:08.506Z,8.81
2019-02-08T17:40:17.159Z,9.00
2019-02-08T17:43:23.081Z,9.00
2019-02-08T17:46:28.848Z,8.67
2019-02-08T17:49:34.614Z,8.84
2019-02-08T17:52:40.587Z,9.02
2019-02-08T17:55:46.525Z,9.17
2019-02-08T17:58:52.265Z,9.33
2019-02-08T18:01:58.162Z,9.31
2019-02-08T18:05:04.479Z,9.39
2019-02-08T18:08:11.581Z,9.43
2019-02-08T18:11:17.449Z,9.38
2019-02-08T18:14:23.351Z,9.52
2019-02-08T18:17:29.151Z,9.46
2019-02-08T18:20:37.225Z,9.52
2019-02-08T18:23:43.076Z,9.51
2019-02-08T18:26:48.888Z,9.55
2019-02-08T18:29:54.659Z,9.35
2019-02-08T18:33:00.428Z,9.34
2019-02-08T18:36:06.551Z,9.26
2019-02-08T18:39:12.549Z,9.34
2019-02-08T18:42:18.706Z,9.35
2019-02-08T18:45:26.312Z,9.37
2019-02-08T18:48:32.128Z,9.25
2019-02-08T18:51:38.030Z,9.24
2019-02-08T18:54:43.824Z,9.13
2019-02-08T18:57:49.873Z,9.24
2019-02-08T19:00:55.834Z,8.88
2019-02-08T19:04:01.617Z,8.79
2019-02-08T19:07:07.603Z,8.84
2019-02-08T19:10:15.955Z,8.71
2019-02-08T19:13:21.749Z,8.95
2019-02-08T19:16:27.739Z,8.72
2019-02-08T19:19:33.504Z,8.74
2019-02-08T19:22:39.598Z,8.88
2019-02-08T19:25:45.998Z,9.03
2019-02-08T19:28:51.791Z,9.14
2019-02-08T19:31:57.790Z,8.96
2019-02-08T19:35:03.663Z,8.88
2019-02-08T19:38:09.836Z,8.81
2019-02-08T19:41:15.628Z,8.92
2019-02-08T19:44:21.532Z,8.49
2019-02-08T19:47:27.447Z,8.83
2019-02-08T19:50:35.644Z,8.94
2019-02-08T19:53:43.743Z,8.86
2019-02-08T19:56:49.613Z,8.81
2019-02-08T19:59:55.407Z,9.00
2019-02-08T20:03:01.553Z,8.99
2019-02-08T20:06:08.929Z,8.58
2019-02-08T20:09:19.241Z,8.52
2019-02-08T20:12:25.147Z,8.79
2019-02-08T20:15:31.534Z,8.97
2019-02-08T20:18:37.374Z,8.62
2019-02-08T20:21:43.197Z,8.86
2019-02-08T20:24:48.938Z,8.94
2019-02-08T20:27:54.820Z,8.56
2019-02-08T20:31:00.819Z,8.63
2019-02-08T20:34:06.727Z,8.38
2019-02-08T20:37:12.616Z,8.62
2019-02-08T20:40:21.355Z,8.27
2019-02-08T20:43:28.269Z,8.26
2019-02-08T20:46:34.103Z,8.36
2019-02-08T20:49:39.955Z,8.46
2019-02-08T20:52:47.794Z,8.20
2019-02-08T20:55:54.039Z,8.16
2019-02-08T20:58:59.931Z,8.20
2019-02-08T21:02:05.856Z,8.27
2019-02-08T21:05:11.943Z,8.31
2019-02-08T21:08:19.283Z,8.54
2019-02-08T21:11:25.220Z,8.29
2019-02-08T21:14:31.129Z,8.10
2019-02-08T21:17:36.988Z,8.28
2019-02-08T21:20:44.585Z,8.35
2019-02-08T21:23:50.343Z,7.93
2019-02-08T21:26:56.207Z,8.04
2019-02-08T21:30:01.983Z,7.78
2019-02-08T21:33:09.787Z,7.89
2019-02-08T21:36:15.644Z,7.49
2019-02-08T21:39:21.717Z,7.62
2019-02-08T21:42:27.522Z,7.44
2019-02-08T21:45:34.743Z,7.35
2019-02-08T21:48:40.610Z,7.39
2019-02-08T21:51:46.788Z,7.47
2019-02-08T21:54:52.558Z,7.17
2019-02-08T21:57:58.547Z,6.91
2019-02-08T22:01:05.480Z,7.01
2019-02-08T22:04:12.643Z,6.99
2019-02-08T22:07:20.087Z,6.58
2019-02-08T22:10:26.042Z,6.81
2019-02-08T22:13:32.450Z,6.80
2019-02-08T22:16:38.439Z,6.97
2019-02-08T22:19:44.216Z,6.91
2019-02-08T22:22:51.665Z,7.03
2019-02-08T22:25:57.545Z,6.89
2019-02-08T22:29:03.322Z,6.56
2019-02-08T22:32:09.195Z,6.83
2019-02-08T22:35:15.869Z,6.92
2019-02-08T22:38:21.760Z,6.82
2019-02-08T22:41:27.514Z,7.02
2019-02-08T22:44:33.338Z,6.78
2019-02-08T22:47:39.134Z,6.89
2019-02-08T22:50:45.193Z,6.91
2019-02-08T22:53:51.068Z,6.94
2019-02-08T22:56:56.941Z,7.00
2019-02-08T23:00:02.895Z,6.89
2019-02-08T23:03:12.516Z,7.09
2019-02-08T23:06:18.397Z,7.45
2019-02-08T23:09:25.165Z,7.51
2019-02-08T23:12:31.131Z,7.60
2019-02-08T23:15:37.593Z,7.30
2019-02-08T23:18:43.681Z,7.60
2019-02-08T23:21:49.645Z,7.05
2019-02-08T23:24:55.544Z,7.39
2019-02-08T23:28:01.331Z,7.49
2019-02-08T23:31:07.705Z,7.21
2019-02-08T23:34:13.495Z,7.23
2019-02-08T23:37:25.841Z,7.23
2019-02-08T23:40:26.819Z,7.47
2019-02-08T23:43:33.404Z,7.64
2019-02-08T23:46:39.373Z,7.67
2019-02-08T23:49:45.147Z,7.68
2019-02-08T23:52:51.143Z,7.37
2019-02-08T23:55:57.221Z,7.50
2019-02-08T23:59:03.011Z,7.48
